Aviation Digital Data Service (ADDS)

Output produced by TAFs form (1606 UTC 26 July 2016)
found at http://aviationweather.gov/adds/tafs/
 
KTCS 261151Z 2612/2712 01007KT P6SM SCT120 BKN250 
     FM262000 18011KT P6SM VCTS SCT080CB BKN150 
     FM270600 27006KT P6SM BKN120